地図

経路データ

SID SEASON NUMBER BASIN SUBBASIN NAME ISO_TIME NATURE LAT LON WMO_WIND WMO_PRES WMO_AGENCY TRACK_TYPE DIST2LAND LANDFALL IFLAG USA_AGENCY USA_ATCF_ID USA_LAT USA_LON USA_RECORD USA_STATUS USA_WIND USA_PRES USA_SSHS USA_R34_NE USA_R34_SE USA_R34_SW USA_R34_NW USA_R50_NE USA_R50_SE USA_R50_SW USA_R50_NW USA_R64_NE USA_R64_SE USA_R64_SW USA_R64_NW USA_POCI USA_ROCI USA_RMW USA_EYE TOKYO_LAT TOKYO_LON TOKYO_GRADE TOKYO_WIND TOKYO_PRES TOKYO_R50_DIR TOKYO_R50_LONG TOKYO_R50_SHORT TOKYO_R30_DIR TOKYO_R30_LONG TOKYO_R30_SHORT TOKYO_LAND CMA_LAT CMA_LON CMA_CAT CMA_WIND CMA_PRES HKO_LAT HKO_LON HKO_CAT HKO_WIND HKO_PRES NEWDELHI_LAT NEWDELHI_LON NEWDELHI_GRADE NEWDELHI_WIND NEWDELHI_PRES NEWDELHI_CI NEWDELHI_DP NEWDELHI_POCI REUNION_LAT REUNION_LON REUNION_TYPE REUNION_WIND REUNION_PRES REUNION_TNUM REUNION_CI REUNION_RMW REUNION_R34_NE REUNION_R34_SE REUNION_R34_SW REUNION_R34_NW REUNION_R50_NE REUNION_R50_SE REUNION_R50_SW REUNION_R50_NW REUNION_R64_NE REUNION_R64_SE REUNION_R64_SW REUNION_R64_NW BOM_LAT BOM_LON BOM_TYPE BOM_WIND BOM_PRES BOM_TNUM BOM_CI BOM_RMW BOM_R34_NE BOM_R34_SE BOM_R34_SW BOM_R34_NW BOM_R50_NE BOM_R50_SE BOM_R50_SW BOM_R50_NW BOM_R64_NE BOM_R64_SE BOM_R64_SW BOM_R64_NW BOM_ROCI BOM_POCI BOM_EYE BOM_POS_METHOD BOM_PRES_METHOD NADI_LAT NADI_LON NADI_CAT NADI_WIND NADI_PRES WELLINGTON_LAT WELLINGTON_LON WELLINGTON_WIND WELLINGTON_PRES DS824_LAT DS824_LON DS824_STAGE DS824_WIND DS824_PRES TD9636_LAT TD9636_LON TD9636_STAGE TD9636_WIND TD9636_PRES TD9635_LAT TD9635_LON TD9635_WIND TD9635_PRES TD9635_ROCI NEUMANN_LAT NEUMANN_LON NEUMANN_CLASS NEUMANN_WIND NEUMANN_PRES MLC_LAT MLC_LON MLC_CLASS MLC_WIND MLC_PRES USA_GUST BOM_GUST BOM_GUST_PER REUNION_GUST REUNION_GUST_PER USA_SEAHGT USA_SEARAD_NE USA_SEARAD_SE USA_SEARAD_SW USA_SEARAD_NW STORM_SPEED STORM_DIR
1972235N10262 1972 78 EP MM GWEN 1972-08-22 00:00:00 TS 10.0000 -97.8000 30 hurdat_epa main 640 640 O________OO___ hurdat_epa EP071972 10.0000 -97.8000 TD 30 -1 10.0000 -97.8000 TC 30 10.0000 -97.8000 2 11 269
1972235N10262 1972 78 EP MM GWEN 1972-08-22 03:00:00 TS 9.98950 -98.3429 main 653 653 P________PP___ EP071972 9.98017 -98.3426 TD 30 -1 9.98017 -98.3426 TC 30 10.0268 -98.3440 2 11 271
1972235N10262 1972 78 EP MM GWEN 1972-08-22 06:00:00 TS 10.0125 -98.9001 30 hurdat_epa main 674 674 O________OP___ hurdat_epa EP071972 10.0000 -98.9000 TD 30 -1 10.0000 -98.9000 TC 30 10.0626 -98.9004 2 11 275
1972235N10262 1972 78 EP MM GWEN 1972-08-22 09:00:00 TS 10.0913 -99.4843 main 685 684 P________PP___ EP071972 10.0849 -99.4850 TD 32 -1 10.0849 -99.4850 TC 32 10.1171 -99.4815 2 12 279
1972235N10262 1972 78 EP MM GWEN 1972-08-22 12:00:00 TS 10.2000 -100.100 35 hurdat_epa main 695 695 O________OO___ hurdat_epa EP071972 10.2000 -100.100 TS 35 0 10.2000 -100.100 TC 35 10.2000 -100.100 2 13 279
1972235N10262 1972 78 EP MM GWEN 1972-08-22 15:00:00 TS 10.2858 -100.752 main 712 712 P________PP___ EP071972 10.2775 -100.750 TS 35 0 10.2775 -100.750 TC 35 10.3191 -100.759 2 13 280
1972235N10262 1972 78 EP MM GWEN 1972-08-22 18:00:00 TS 10.4151 -101.405 35 hurdat_epa main 726 719 O________OP___ hurdat_epa EP071972 10.4000 -101.400 TS 35 0 10.4000 -101.400 TC 35 10.4756 -101.425 2 13 285
1972235N10262 1972 78 EP MM GWEN 1972-08-22 21:00:00 TS 10.6359 -102.046 main 726 716 P________PP___ EP071972 10.6275 -102.045 TS 35 0 10.6275 -102.045 TC 35 10.6692 -102.053 2 13 292
1972235N10262 1972 78 EP MM GWEN 1972-08-23 00:00:00 TS 10.9000 -102.600 35 hurdat_epa main 720 715 O________OO___ hurdat_epa EP071972 10.9000 -102.600 TS 35 0 10.9000 -102.600 TC 35 10.9000 -102.600 2 11 298
1972235N10262 1972 78 EP MM GWEN 1972-08-23 03:00:00 TS 11.1381 -102.994 main 721 701 P________PP___ EP071972 11.1348 -102.995 TS 35 0 11.1348 -102.995 TC 35 11.1510 -102.991 2 9 306
1972235N10262 1972 78 EP MM GWEN 1972-08-23 06:00:00 TS 11.4078 -103.301 35 hurdat_epa main 701 678 O________OP___ hurdat_epa EP071972 11.4000 -103.300 TS 35 0 11.4000 -103.300 TC 35 11.4388 -103.303 2 8 316
1972235N10262 1972 78 EP MM GWEN 1972-08-23 09:00:00 TS 11.7394 -103.586 main 682 655 P________PP___ EP071972 11.7349 -103.585 TS 40 0 11.7349 -103.585 TC 40 11.7573 -103.589 2 9 320
1972235N10262 1972 78 EP MM GWEN 1972-08-23 12:00:00 TS 12.1000 -103.900 45 hurdat_epa main 655 641 O________OO___ hurdat_epa EP071972 12.1000 -103.900 TS 45 0 12.1000 -103.900 TC 45 12.1000 -103.900 2 10 314
1972235N10262 1972 78 EP MM GWEN 1972-08-23 15:00:00 TS 12.4448 -104.332 main 647 627 P________PP___ EP071972 12.4425 -104.328 TS 45 0 12.4425 -104.328 TC 45 12.4538 -104.350 2 11 309
1972235N10262 1972 78 EP MM GWEN 1972-08-23 18:00:00 TS 12.8056 -104.806 45 hurdat_epa main 627 599 O________OP___ hurdat_epa EP071972 12.8000 -104.800 TS 45 0 12.8000 -104.800 TC 45 12.8281 -104.829 2 12 309
1972235N10262 1972 78 EP MM GWEN 1972-08-23 21:00:00 TS 13.1967 -105.283 main 602 576 P________PP___ EP071972 13.1926 -105.280 TS 47 0 13.1926 -105.280 TC 47 13.2133 -105.294 2 12 312
1972235N10262 1972 78 EP MM GWEN 1972-08-24 00:00:00 TS 13.6000 -105.700 50 hurdat_epa main 576 550 O________OO___ hurdat_epa EP071972 13.6000 -105.700 TS 50 0 13.6000 -105.700 TC 50 13.6000 -105.700 2 11 320
1972235N10262 1972 78 EP MM GWEN 1972-08-24 03:00:00 TS 14.0024 -105.991 main 550 522 P________PP___ EP071972 14.0074 -105.988 TS 50 0 14.0074 -105.988 TC 50 13.9827 -106.002 2 9 328
1972235N10262 1972 78 EP MM GWEN 1972-08-24 06:00:00 TS 14.3929 -106.208 50 hurdat_epa main 522 507 O________OP___ hurdat_epa EP071972 14.4000 -106.200 TS 50 0 14.4000 -106.200 TC 50 14.3645 -106.241 2 9 331
1972235N10262 1972 78 EP MM GWEN 1972-08-24 09:00:00 TS 14.7538 -106.419 main 498 487 P________PP___ EP071972 14.7575 -106.415 TS 52 0 14.7575 -106.415 TC 52 14.7391 -106.433 2 8 332
1972235N10262 1972 78 EP MM GWEN 1972-08-24 12:00:00 TS 15.1000 -106.600 55 hurdat_epa main 487 470 O________OO___ hurdat_epa EP071972 15.1000 -106.600 TS 55 0 15.1000 -106.600 TC 55 15.1000 -106.600 2 8 335
1972235N10262 1972 78 EP MM GWEN 1972-08-24 15:00:00 TS 15.4619 -106.760 main 465 440 P________PP___ EP071972 15.4575 -106.758 TS 60 0 15.4575 -106.758 TC 60 15.4799 -106.772 2 8 338
1972235N10262 1972 78 EP MM GWEN 1972-08-24 18:00:00 TS 15.8080 -106.905 65 hurdat_epa main 440 417 O________OP___ hurdat_epa EP071972 15.8000 -106.900 HU 65 1 15.8000 -106.900 TC 65 15.8398 -106.923 2 7 338
1972235N10262 1972 78 EP MM GWEN 1972-08-24 21:00:00 TS 16.1410 -107.052 main 423 403 P________PP___ EP071972 16.1375 -107.050 HU 65 1 16.1375 -107.050 TC 65 16.1549 -107.062 2 7 334
1972235N10262 1972 78 EP MM GWEN 1972-08-25 00:00:00 TS 16.4000 -107.200 65 hurdat_epa main 403 394 O________OO___ hurdat_epa EP071972 16.4000 -107.200 HU 65 1 16.4000 -107.200 TC 65 16.4000 -107.200 3 5 324
1972235N10262 1972 78 EP MM GWEN 1972-08-25 03:00:00 TS 16.5369 -107.349 main 401 400 P________PP___ EP071972 16.5375 -107.350 HU 67 1 16.5375 -107.350 TC 67 16.5346 -107.342 3 3 305
1972235N10262 1972 78 EP MM GWEN 1972-08-25 06:00:00 TS 16.6005 -107.497 70 hurdat_epa main 407 407 O________OP___ hurdat_epa EP071972 16.6000 -107.500 HU 70 1 16.6000 -107.500 TC 70 16.6024 -107.486 3 3 291
1972235N10262 1972 78 EP MM GWEN 1972-08-25 09:00:00 TS 16.6428 -107.641 main 415 415 P________PP___ EP071972 16.6425 -107.643 HU 72 1 16.6425 -107.643 TC 72 16.6440 -107.636 3 3 289
1972235N10262 1972 78 EP MM GWEN 1972-08-25 12:00:00 TS 16.7000 -107.800 75 hurdat_epa main 422 422 O________OO___ hurdat_epa EP071972 16.7000 -107.800 HU 75 1 16.7000 -107.800 TC 75 16.7000 -107.800 4 4 300
1972235N10262 1972 78 EP MM GWEN 1972-08-25 15:00:00 TS 16.8329 -107.990 main 430 422 P________PP___ EP071972 16.8350 -107.992 HU 75 1 16.8350 -107.992 TC 75 16.8244 -107.982 4 5 308
1972235N10262 1972 78 EP MM GWEN 1972-08-25 18:00:00 TS 16.9940 -108.196 75 hurdat_epa main 430 429 O________OP___ hurdat_epa EP071972 17.0000 -108.200 HU 75 1 17.0000 -108.200 TC 75 16.9700 -108.178 4 5 308
1972235N10262 1972 78 EP MM GWEN 1972-08-25 21:00:00 TS 17.1401 -108.397 main 437 430 P________PP___ EP071972 17.1425 -108.400 HU 75 1 17.1425 -108.400 TC 75 17.1306 -108.385 4 5 308
1972235N10262 1972 78 EP MM GWEN 1972-08-26 00:00:00 TS 17.3000 -108.600 75 hurdat_epa main 439 439 O________OO___ hurdat_epa EP071972 17.3000 -108.600 HU 75 1 17.3000 -108.600 TC 75 17.3000 -108.600 4 5 313
1972235N10262 1972 78 EP MM GWEN 1972-08-26 03:00:00 TS 17.4968 -108.796 main 443 443 P________PP___ EP071972 17.5000 -108.793 HU 75 1 17.5000 -108.793 TC 75 17.4840 -108.810 4 6 316
1972235N10262 1972 78 EP MM GWEN 1972-08-26 06:00:00 TS 17.6945 -109.005 75 hurdat_epa main 449 449 O________OP___ hurdat_epa EP071972 17.7000 -109.000 HU 75 1 17.7000 -109.000 TC 75 17.6723 -109.027 4 6 310
1972235N10262 1972 78 EP MM GWEN 1972-08-26 09:00:00 TS 17.8619 -109.245 main 454 454 P________PP___ EP071972 17.8650 -109.243 HU 75 1 17.8650 -109.243 TC 75 17.8496 -109.256 4 6 303
1972235N10262 1972 78 EP MM GWEN 1972-08-26 12:00:00 TS 18.0000 -109.500 75 hurdat_epa main 476 476 O________OO___ hurdat_epa EP071972 18.0000 -109.500 HU 75 1 18.0000 -109.500 TC 75 18.0000 -109.500 4 5 298
1972235N10262 1972 78 EP MM GWEN 1972-08-26 15:00:00 TS 18.1111 -109.745 main 489 489 P________PP___ EP071972 18.1149 -109.743 HU 80 1 18.1149 -109.743 TC 80 18.0955 -109.753 4 5 292
1972235N10262 1972 78 EP MM GWEN 1972-08-26 18:00:00 TS 18.1930 -110.004 85 941 hurdat_epa main 513 513 O________OP___ hurdat_epa EP071972 18.2000 -110.000 HU 85 941 2 18.2000 -110.000 TC 85 941 18.1648 -110.021 4 5 284
1972235N10262 1972 78 EP MM GWEN 1972-08-26 21:00:00 TS 18.2453 -110.295 main 526 515 P________PP___ EP071972 18.2500 -110.293 HU 90 2 18.2500 -110.293 TC 90 18.2267 -110.303 4 6 281
1972235N10262 1972 78 EP MM GWEN 1972-08-27 00:00:00 TS 18.3000 -110.600 95 hurdat_epa main 518 510 O________OO___ hurdat_epa EP071972 18.3000 -110.600 HU 95 2 18.3000 -110.600 TC 95 18.3000 -110.600 4 6 284
1972235N10262 1972 78 EP MM GWEN 1972-08-27 03:00:00 TS 18.3876 -110.895 main 511 505 P________PP___ EP071972 18.3849 -110.893 HU 95 2 18.3849 -110.893 TC 95 18.3983 -110.907 4 6 289
1972235N10262 1972 78 EP MM GWEN 1972-08-27 06:00:00 TS 18.5025 -111.206 95 hurdat_epa main 507 499 O________OP___ hurdat_epa EP071972 18.5000 -111.200 HU 95 2 18.5000 -111.200 TC 95 18.5124 -111.228 4 7 293
1972235N10262 1972 78 EP MM GWEN 1972-08-27 09:00:00 TS 18.6430 -111.540 main 505 495 P________PP___ EP071972 18.6424 -111.535 HU 102 3 18.6424 -111.535 TC 102 18.6452 -111.560 4 7 294
1972235N10262 1972 78 EP MM GWEN 1972-08-27 12:00:00 TS 18.8000 -111.900 110 hurdat_epa main 499 497 O________OO___ hurdat_epa EP071972 18.8000 -111.900 HU 110 3 18.8000 -111.900 TC 110 18.8000 -111.900 4 8 292
1972235N10262 1972 78 EP MM GWEN 1972-08-27 15:00:00 TS 18.9323 -112.292 main 507 502 P________PP___ EP071972 18.9350 -112.308 HU 110 3 18.9350 -112.308 TC 110 18.9213 -112.232 4 8 292
1972235N10262 1972 78 EP MM GWEN 1972-08-27 18:00:00 TS 19.0944 -112.674 110 hurdat_epa main 508 502 O________OP___ hurdat_epa EP071972 19.1000 -112.700 HU 110 3 19.1000 -112.700 TC 110 19.0721 -112.572 4 8 299
1972235N10262 1972 78 EP MM GWEN 1972-08-27 21:00:00 TS 19.2952 -112.986 main 508 503 P________PP___ EP071972 19.2973 -113.000 HU 105 3 19.2973 -113.000 TC 105 19.2869 -112.926 4 8 311
1972235N10262 1972 78 EP MM GWEN 1972-08-28 00:00:00 TS 19.6000 -113.300 100 hurdat_epa main 503 493 O________OO___ hurdat_epa EP071972 19.6000 -113.300 HU 100 3 19.6000 -113.300 TC 100 19.6000 -113.300 4 10 319
1972235N10262 1972 78 EP MM GWEN 1972-08-28 03:00:00 TS 20.0536 -113.687 main 494 488 P________PP___ EP071972 20.0475 -113.678 HU 100 3 20.0475 -113.678 TC 100 20.0781 -113.722 4 13 323
1972235N10262 1972 78 EP MM GWEN 1972-08-28 06:00:00 TS 20.6096 -114.113 100 hurdat_epa main 495 461 O________OP___ hurdat_epa EP071972 20.6000 -114.100 HU 100 3 20.6000 -114.100 TC 100 20.6480 -114.163 4 14 325
1972235N10262 1972 78 EP MM GWEN 1972-08-28 09:00:00 TS 21.2268 -114.571 main 467 439 P________PP___ EP071972 21.2226 -114.565 HU 100 3 21.2226 -114.565 TC 100 21.2438 -114.597 4 15 325
1972235N10262 1972 78 EP MM GWEN 1972-08-28 12:00:00 TS 21.8000 -115.000 100 hurdat_epa main 439 429 O________OO___ hurdat_epa EP071972 21.8000 -115.000 HU 100 3 21.8000 -115.000 TC 100 21.8000 -115.000 4 12 324
1972235N10262 1972 78 EP MM GWEN 1972-08-28 15:00:00 TS 22.1838 -115.323 main 429 429 P________PP___ EP071972 22.1798 -115.323 HU 82 1 22.1798 -115.323 TC 82 22.2001 -115.322 4 9 322
1972235N10262 1972 78 EP MM GWEN 1972-08-28 18:00:00 TS 22.5113 -115.602 65 962 hurdat_epa main 431 424 O________OP___ hurdat_epa EP071972 22.5000 -115.600 HU 65 962 1 22.5000 -115.600 TC 65 962 22.5564 -115.611 4 9 323
1972235N10262 1972 78 EP MM GWEN 1972-08-28 21:00:00 TS 22.8838 -115.887 main 431 430 P________PP___ EP071972 22.8774 -115.885 HU 65 1 22.8774 -115.885 TC 65 22.9095 -115.894 4 10 325
1972235N10262 1972 78 EP MM GWEN 1972-08-29 00:00:00 TS 23.3000 -116.200 65 hurdat_epa main 439 439 O________OO___ hurdat_epa EP071972 23.3000 -116.200 HU 65 1 23.3000 -116.200 TC 65 23.3000 -116.200 4 11 324
1972235N10262 1972 78 EP MM GWEN 1972-08-29 03:00:00 TS 23.7776 -116.582 main 439 415 P________PP___ EP071972 23.7775 -116.585 HU 57 0 23.7775 -116.585 TC 57 23.7779 -116.571 4 12 324
1972235N10262 1972 78 EP MM GWEN 1972-08-29 06:00:00 TS 24.2995 -116.994 50 hurdat_epa main 415 394 O________OP___ hurdat_epa EP071972 24.3000 -117.000 TS 50 0 24.3000 -117.000 TC 50 24.2976 -116.970 4 13 325
1972235N10262 1972 78 EP MM GWEN 1972-08-29 09:00:00 TS 24.8426 -117.397 main 401 378 P________PP___ EP071972 24.8424 -117.400 TS 50 0 24.8424 -117.400 TC 50 24.8435 -117.384 4 13 326
1972235N10262 1972 78 EP MM GWEN 1972-08-29 12:00:00 TS 25.4000 -117.800 50 hurdat_epa main 378 367 O________OO___ hurdat_epa EP071972 25.4000 -117.800 TS 50 0 25.4000 -117.800 TC 50 25.4000 -117.800 2 13 327
1972235N10262 1972 78 EP MM GWEN 1972-08-29 15:00:00 TS 25.9558 -118.207 main 369 369 P________PP___ EP071972 25.9499 -118.200 TS 50 0 25.9499 -118.200 TC 50 25.9795 -118.232 2 13 327
1972235N10262 1972 78 EP MM GWEN 1972-08-29 18:00:00 TS 26.5121 -118.612 50 hurdat_epa main 380 380 O________OP___ hurdat_epa EP071972 26.5000 -118.600 TS 50 0 26.5000 -118.600 TC 50 26.5603 -118.659 2 14 327
1972235N10262 1972 78 EP MM GWEN 1972-08-29 21:00:00 TS 27.0862 -119.035 main 400 400 P________PP___ EP071972 27.0801 -119.030 TS 50 0 27.0801 -119.030 TC 50 27.1109 -119.056 2 13 327
1972235N10262 1972 78 EP MM GWEN 1972-08-30 00:00:00 TS 27.6000 -119.400 50 hurdat_epa main 433 425 O________OO___ hurdat_epa EP071972 27.6000 -119.400 TS 50 0 27.6000 -119.400 TC 50 27.6000 -119.400 2 11 329
1972235N10262 1972 78 EP MM GWEN 1972-08-30 03:00:00 TS 27.9941 -119.639 main 425 423 P________PP___ EP071972 27.9873 -119.631 TS 50 0 27.9873 -119.631 TC 50 28.0215 -119.671 2 8 333
1972235N10262 1972 78 EP MM GWEN 1972-08-30 06:00:00 TS 28.3153 -119.817 50 999 hurdat_epa main 427 422 O________OP___ hurdat_epa EP071972 28.3000 -119.800 TS 50 999 0 28.3000 -119.800 TC 50 999 28.3767 -119.884 2 7 333
1972235N10262 1972 78 EP MM GWEN 1972-08-30 09:00:00 TS 28.6377 -120.017 main 432 428 P________PP___ EP071972 28.6300 -120.007 TS 47 0 28.6300 -120.007 TC 47 28.6686 -120.055 2 7 330
1972235N10262 1972 78 EP MM GWEN 1972-08-30 12:00:00 TS 28.9000 -120.200 45 hurdat_epa main 438 434 O________OO___ hurdat_epa EP071972 28.9000 -120.200 TS 45 0 28.9000 -120.200 TC 45 28.9000 -120.200 2 5 326
1972235N10262 1972 78 EP MM GWEN 1972-08-30 15:00:00 TS 29.0791 -120.359 main 447 442 P________PP___ EP071972 29.0800 -120.365 TS 40 0 29.0800 -120.365 TC 40 29.0756 -120.333 2 4 320
1972235N10262 1972 78 EP MM GWEN 1972-08-30 18:00:00 TS 29.2016 -120.492 35 hurdat_epa main 450 445 O________OP___ hurdat_epa EP071972 29.2000 -120.500 TS 35 0 29.2000 -120.500 TC 35 29.2079 -120.459 2 3 317
1972235N10262 1972 78 EP MM GWEN 1972-08-30 21:00:00 TS 29.3042 -120.602 main 452 452 P________PP___ EP071972 29.3025 -120.607 TS 32 -1 29.3025 -120.607 TC 32 29.3112 -120.581 2 3 318
1972235N10262 1972 78 EP MM GWEN 1972-08-31 00:00:00 TS 29.4000 -120.700 30 1006 hurdat_epa main 454 O________OO___ hurdat_epa EP071972 29.4000 -120.700 TD 30 1006 -1 29.4000 -120.700 TC 30 1006 29.4000 -120.700 2 3 317

IBTrACS Databaseについて

本データベースは、米国NOAAが公開する1842年以降の世界の熱帯低気圧のベストトラックデータアーカイブInternational Best Track Archive for Climate Stewardship (IBTrACS)を、ウェブで閲覧しやすい形式に変換したものです。

最終更新日:2021-11-26